createdAt,value
2023-04-24T00:00:00.252Z,11.55
2023-04-24T00:02:27.933Z,11.67
2023-04-24T00:04:58.516Z,11.64
2023-04-24T00:07:26.271Z,11.85
2023-04-24T00:09:53.761Z,11.50
2023-04-24T00:12:22.668Z,11.39
2023-04-24T00:14:50.499Z,11.49
2023-04-24T00:17:20.941Z,11.50
2023-04-24T00:19:48.478Z,11.61
2023-04-24T00:22:16.180Z,11.57
2023-04-24T00:24:43.742Z,11.77
2023-04-24T00:27:11.311Z,11.43
2023-04-24T00:29:40.427Z,11.41
2023-04-24T00:32:08.189Z,11.32
2023-04-24T00:34:35.741Z,11.26
2023-04-24T00:37:03.244Z,11.25
2023-04-24T00:39:30.834Z,11.26
2023-04-24T00:41:58.769Z,11.15
2023-04-24T00:44:26.459Z,11.25
2023-04-24T00:46:56.363Z,11.25
2023-04-24T00:49:23.997Z,11.28
2023-04-24T00:51:52.214Z,11.29
2023-04-24T00:54:19.997Z,11.24
2023-04-24T00:56:47.540Z,11.22
2023-04-24T00:59:15.246Z,11.33
2023-04-24T01:01:43.736Z,11.40
2023-04-24T01:04:13.374Z,11.51
2023-04-24T01:06:41.337Z,11.15
2023-04-24T01:09:10.207Z,11.30
2023-04-24T01:11:37.804Z,11.29
2023-04-24T01:14:06.292Z,11.32
2023-04-24T01:16:34.386Z,11.23
2023-04-24T01:19:02.328Z,11.20
2023-04-24T01:21:31.206Z,11.27
2023-04-24T01:24:00.125Z,11.22
2023-04-24T01:26:27.719Z,11.27
2023-04-24T01:28:55.281Z,11.29
2023-04-24T01:31:22.885Z,11.16
2023-04-24T01:33:50.479Z,11.13
2023-04-24T01:36:18.014Z,11.18
2023-04-24T01:38:45.852Z,11.16
2023-04-24T01:41:14.760Z,11.02
2023-04-24T01:43:42.369Z,11.00
2023-04-24T01:46:10.198Z,11.04
2023-04-24T01:48:37.792Z,11.02
2023-04-24T01:51:05.350Z,11.01
2023-04-24T01:53:32.911Z,10.93
2023-04-24T01:56:00.498Z,10.85
2023-04-24T01:58:29.601Z,10.93
2023-04-24T02:00:58.120Z,11.07
2023-04-24T02:03:25.835Z,11.05
2023-04-24T02:05:53.421Z,11.00
2023-04-24T02:08:20.961Z,11.06
2023-04-24T02:10:50.743Z,10.97
2023-04-24T02:13:18.300Z,10.94
2023-04-24T02:15:47.175Z,10.81
2023-04-24T02:18:14.764Z,10.81
2023-04-24T02:20:48.190Z,10.76
2023-04-24T02:23:16.224Z,10.75
2023-04-24T02:25:43.784Z,10.77
2023-04-24T02:28:11.366Z,10.82
2023-04-24T02:30:38.914Z,10.80
2023-04-24T02:33:08.321Z,10.68
2023-04-24T02:35:36.046Z,10.68
2023-04-24T02:38:04.157Z,10.70
2023-04-24T02:40:31.730Z,10.81
2023-04-24T02:42:59.421Z,10.81
2023-04-24T02:45:27.043Z,10.72
2023-04-24T02:47:55.076Z,10.78
2023-04-24T02:50:27.927Z,10.78
2023-04-24T02:52:55.595Z,10.87
2023-04-24T02:55:23.237Z,10.80
2023-04-24T02:57:50.994Z,10.80
2023-04-24T03:00:18.707Z,10.62
2023-04-24T03:02:46.667Z,10.61
2023-04-24T03:05:14.354Z,10.67
2023-04-24T03:07:43.288Z,10.73
2023-04-24T03:10:11.119Z,10.62
2023-04-24T03:12:38.694Z,10.39
2023-04-24T03:15:06.742Z,10.41
2023-04-24T03:17:34.452Z,10.61
2023-04-24T03:20:02.043Z,10.61
2023-04-24T03:22:30.771Z,10.54
2023-04-24T03:24:59.748Z,10.66
2023-04-24T03:27:27.352Z,10.59
2023-04-24T03:29:57.759Z,10.71
2023-04-24T03:32:33.358Z,10.74
2023-04-24T03:35:01.930Z,10.67
2023-04-24T03:37:30.018Z,10.62
2023-04-24T03:40:12.706Z,10.39
2023-04-24T03:42:40.351Z,10.53
2023-04-24T03:45:08.517Z,10.54
2023-04-24T03:47:38.728Z,10.36
2023-04-24T03:50:07.762Z,10.41
2023-04-24T03:52:36.399Z,10.46
2023-04-24T03:55:04.995Z,10.41
2023-04-24T03:57:40.166Z,10.37
2023-04-24T04:00:15.333Z,10.32
2023-04-24T04:02:45.131Z,10.34
2023-04-24T04:05:12.961Z,10.42
2023-04-24T04:07:40.517Z,10.43
2023-04-24T04:10:09.085Z,10.47
2023-04-24T04:12:39.840Z,10.47
2023-04-24T04:15:07.985Z,10.47
2023-04-24T04:17:35.933Z,10.51
2023-04-24T04:20:10.385Z,10.49
2023-04-24T04:22:39.004Z,10.45
2023-04-24T04:25:10.136Z,10.50
2023-04-24T04:27:37.762Z,10.59
2023-04-24T04:30:28.462Z,10.60
2023-04-24T04:33:17.584Z,10.59
2023-04-24T04:35:49.775Z,10.70
2023-04-24T04:38:17.746Z,10.62
2023-04-24T04:40:54.276Z,10.82
2023-04-24T04:43:24.090Z,10.83
2023-04-24T04:45:55.927Z,10.63
2023-04-24T04:48:46.784Z,10.66
2023-04-24T04:51:14.567Z,10.57
2023-04-24T04:53:42.192Z,10.72
2023-04-24T04:56:09.900Z,10.70
2023-04-24T04:58:46.808Z,10.57
2023-04-24T05:01:18.686Z,10.62
2023-04-24T05:03:48.673Z,10.62
2023-04-24T05:06:18.101Z,10.78
2023-04-24T05:08:46.736Z,10.79
2023-04-24T05:11:30.749Z,10.75
2023-04-24T05:13:59.236Z,10.71
2023-04-24T05:16:36.154Z,11.00
2023-04-24T05:19:03.752Z,10.82
2023-04-24T05:21:36.409Z,10.89
2023-04-24T05:24:04.269Z,10.84
2023-04-24T05:26:47.438Z,10.78
2023-04-24T05:29:17.178Z,10.66
2023-04-24T05:31:46.290Z,10.96
2023-04-24T05:34:14.174Z,10.84
2023-04-24T05:36:44.982Z,10.97
2023-04-24T05:39:12.779Z,10.87
2023-04-24T05:41:40.357Z,10.86
2023-04-24T05:44:07.956Z,10.99
2023-04-24T05:46:35.648Z,11.11
2023-04-24T05:49:04.626Z,11.17
2023-04-24T05:51:34.053Z,11.07
2023-04-24T05:54:02.338Z,11.11
2023-04-24T05:56:30.127Z,10.90
2023-04-24T05:58:58.868Z,11.11
2023-04-24T06:01:26.473Z,10.99
2023-04-24T06:04:06.009Z,11.14
2023-04-24T06:06:33.628Z,11.31
2023-04-24T06:09:01.232Z,11.28
2023-04-24T06:11:29.899Z,11.28
2023-04-24T06:13:57.743Z,11.39
2023-04-24T06:16:41.018Z,11.25
2023-04-24T06:19:30.147Z,11.05
2023-04-24T06:21:57.890Z,11.08
2023-04-24T06:24:29.041Z,11.25
2023-04-24T06:26:57.740Z,11.24
2023-04-24T06:29:25.353Z,11.31
2023-04-24T06:31:52.925Z,11.37
2023-04-24T06:34:20.553Z,11.27
2023-04-24T06:36:49.922Z,11.37
2023-04-24T06:39:17.462Z,11.28
2023-04-24T06:41:45.011Z,11.31
2023-04-24T06:44:20.246Z,11.33
2023-04-24T06:46:47.763Z,11.16
2023-04-24T06:49:17.098Z,11.26
2023-04-24T06:51:44.832Z,11.24
2023-04-24T06:54:13.820Z,11.27
2023-04-24T06:56:41.352Z,11.18
2023-04-24T06:59:08.906Z,11.24
2023-04-24T07:01:36.515Z,11.26
2023-04-24T07:04:04.186Z,11.26
2023-04-24T07:06:32.836Z,11.41
2023-04-24T07:09:00.842Z,11.54
2023-04-24T07:11:30.321Z,11.41
2023-04-24T07:13:57.907Z,11.25
2023-04-24T07:16:25.495Z,11.33
2023-04-24T07:18:53.049Z,11.41
2023-04-24T07:21:20.838Z,11.54
2023-04-24T07:23:48.478Z,11.52
2023-04-24T07:26:16.453Z,11.65
2023-04-24T07:28:45.335Z,11.68
2023-04-24T07:31:13.171Z,11.85
2023-04-24T07:33:40.781Z,11.95
2023-04-24T07:36:08.377Z,11.72
2023-04-24T07:38:36.033Z,11.71
2023-04-24T07:41:03.709Z,11.84
2023-04-24T07:43:31.411Z,11.76
2023-04-24T07:46:00.321Z,11.72
2023-04-24T07:48:27.839Z,11.64
2023-04-24T07:50:55.520Z,11.68
2023-04-24T07:53:23.054Z,11.69
2023-04-24T07:55:50.607Z,11.76
2023-04-24T07:58:18.155Z,11.83
2023-04-24T08:00:45.805Z,12.00
2023-04-24T08:03:14.848Z,12.03
2023-04-24T08:05:43.025Z,11.85
2023-04-24T08:08:10.592Z,11.74
2023-04-24T08:10:38.160Z,12.10
2023-04-24T08:13:05.675Z,12.07
2023-04-24T08:15:33.226Z,12.01
2023-04-24T08:18:00.838Z,12.16
2023-04-24T08:20:29.759Z,12.45
2023-04-24T08:22:57.536Z,12.41
2023-04-24T08:25:25.774Z,12.35
2023-04-24T08:27:53.323Z,12.37
2023-04-24T08:30:21.454Z,12.39
2023-04-24T08:32:49.522Z,12.57
2023-04-24T08:35:17.158Z,12.63
2023-04-24T08:37:46.222Z,12.66
2023-04-24T08:40:14.778Z,12.56
2023-04-24T08:42:43.896Z,12.48
2023-04-24T08:45:11.967Z,12.58
2023-04-24T08:47:39.816Z,12.60
2023-04-24T08:50:08.280Z,12.67
2023-04-24T08:52:35.854Z,12.52
2023-04-24T08:55:04.945Z,12.55
2023-04-24T08:57:32.593Z,12.61
2023-04-24T09:00:00.273Z,12.77
2023-04-24T09:02:28.073Z,12.84
2023-04-24T09:04:55.798Z,12.56
2023-04-24T09:07:23.707Z,12.50
2023-04-24T09:09:51.384Z,12.36
2023-04-24T09:12:20.522Z,12.26
2023-04-24T09:14:48.173Z,12.08
2023-04-24T09:17:15.806Z,12.22
2023-04-24T09:19:43.734Z,12.27
2023-04-24T09:22:12.242Z,12.25
2023-04-24T09:24:39.956Z,12.53
2023-04-24T09:27:08.902Z,13.01
2023-04-24T09:29:39.027Z,12.77
2023-04-24T09:32:19.882Z,12.61
2023-04-24T09:34:47.503Z,12.58
2023-04-24T09:37:16.934Z,12.62
2023-04-24T09:39:44.673Z,12.41
2023-04-24T09:42:12.447Z,12.29
2023-04-24T09:44:42.584Z,12.27
2023-04-24T09:47:10.909Z,12.47
2023-04-24T09:49:40.246Z,12.54
2023-04-24T09:52:08.248Z,12.70
2023-04-24T09:54:37.762Z,12.82
2023-04-24T09:57:05.550Z,13.03
2023-04-24T09:59:33.677Z,13.52
2023-04-24T10:02:05.144Z,13.60
2023-04-24T10:04:32.847Z,13.60
2023-04-24T10:07:02.096Z,13.80
2023-04-24T10:09:30.726Z,13.69
2023-04-24T10:11:58.268Z,13.54
2023-04-24T10:14:26.846Z,13.62
2023-04-24T10:16:55.645Z,13.29
2023-04-24T10:19:24.726Z,13.14
2023-04-24T10:21:52.313Z,12.91
2023-04-24T10:24:21.484Z,13.10
2023-04-24T10:26:52.071Z,13.19
2023-04-24T10:29:20.021Z,13.02
2023-04-24T10:31:49.434Z,13.62
2023-04-24T10:34:18.385Z,14.03
2023-04-24T10:36:48.842Z,13.81
2023-04-24T10:39:18.121Z,14.02
2023-04-24T10:41:47.409Z,14.02
2023-04-24T10:44:17.186Z,14.17
2023-04-24T10:46:45.168Z,14.61
2023-04-24T10:49:12.936Z,14.23
2023-04-24T10:51:48.977Z,14.01
2023-04-24T10:54:25.930Z,13.48
2023-04-24T10:56:53.542Z,13.65
2023-04-24T10:59:30.318Z,13.55
2023-04-24T11:01:57.996Z,13.87
2023-04-24T11:04:31.729Z,13.79
2023-04-24T11:07:02.799Z,13.71
2023-04-24T11:09:30.598Z,13.63
2023-04-24T11:12:05.140Z,13.20
2023-04-24T11:14:32.723Z,13.18
2023-04-24T11:17:02.334Z,13.37
2023-04-24T11:19:30.794Z,12.94
2023-04-24T11:22:11.628Z,13.20
2023-04-24T11:24:40.727Z,13.57
2023-04-24T11:27:22.396Z,13.53
2023-04-24T11:29:52.762Z,13.33
2023-04-24T11:32:21.399Z,13.50
2023-04-24T11:34:52.290Z,13.16
2023-04-24T11:37:21.162Z,13.23
2023-04-24T11:39:48.925Z,13.61
2023-04-24T11:42:16.774Z,13.91
2023-04-24T11:44:44.738Z,13.86
2023-04-24T11:47:15.181Z,13.77
2023-04-24T11:49:45.022Z,13.89
2023-04-24T11:52:14.914Z,13.90
2023-04-24T11:54:50.049Z,14.31
2023-04-24T11:57:21.537Z,13.92
2023-04-24T11:59:50.385Z,13.32
2023-04-24T12:02:28.198Z,13.44
2023-04-24T12:04:56.425Z,13.34
2023-04-24T12:07:27.520Z,13.33
2023-04-24T12:10:00.742Z,13.38
2023-04-24T12:12:29.175Z,13.48
2023-04-24T12:14:57.401Z,13.79
2023-04-24T12:17:29.516Z,13.88
2023-04-24T12:20:02.000Z,14.22
2023-04-24T12:22:29.881Z,14.39
2023-04-24T12:25:01.687Z,14.47
2023-04-24T12:27:31.277Z,14.31
2023-04-24T12:29:59.068Z,14.37
2023-04-24T12:32:29.113Z,14.22
2023-04-24T12:34:59.851Z,14.03
2023-04-24T12:37:27.896Z,14.13
2023-04-24T12:40:10.914Z,14.08
2023-04-24T12:42:43.593Z,13.73
2023-04-24T12:45:14.220Z,13.54
2023-04-24T12:47:42.000Z,13.32
2023-04-24T12:50:10.065Z,13.53
2023-04-24T12:52:37.984Z,13.42
2023-04-24T12:55:09.089Z,13.21
2023-04-24T12:57:39.155Z,13.54
2023-04-24T13:00:07.539Z,13.69
2023-04-24T13:02:35.517Z,13.50
2023-04-24T13:05:06.458Z,13.08
2023-04-24T13:07:34.091Z,13.02
2023-04-24T13:10:02.039Z,13.11
2023-04-24T13:12:31.232Z,13.22
2023-04-24T13:14:59.798Z,13.09
2023-04-24T13:17:27.732Z,12.95
2023-04-24T13:19:55.980Z,12.82
2023-04-24T13:22:26.336Z,12.75
2023-04-24T13:24:57.367Z,12.91
2023-04-24T13:27:27.948Z,12.57
2023-04-24T13:29:58.558Z,12.85
2023-04-24T13:32:26.323Z,13.00
2023-04-24T13:34:54.190Z,13.22
2023-04-24T13:37:22.162Z,13.32
2023-04-24T13:39:50.133Z,13.51
2023-04-24T13:42:19.209Z,13.66
2023-04-24T13:44:50.367Z,13.64
2023-04-24T13:47:19.520Z,13.64
2023-04-24T13:49:55.418Z,13.95
2023-04-24T13:52:23.156Z,14.00
2023-04-24T13:54:50.754Z,13.65
2023-04-24T13:57:18.592Z,13.33
2023-04-24T13:59:46.684Z,13.73
2023-04-24T14:02:14.578Z,13.61
2023-04-24T14:04:46.344Z,13.31
2023-04-24T14:07:14.413Z,13.56
2023-04-24T14:09:41.986Z,13.33
2023-04-24T14:12:09.786Z,13.23
2023-04-24T14:14:37.357Z,13.20
2023-04-24T14:17:05.097Z,13.18
2023-04-24T14:19:34.878Z,13.26
2023-04-24T14:22:03.889Z,13.26
2023-04-24T14:24:34.296Z,13.13
2023-04-24T14:27:02.360Z,13.24
2023-04-24T14:29:29.982Z,13.55
2023-04-24T14:31:57.606Z,13.88
2023-04-24T14:34:25.225Z,13.71
2023-04-24T14:36:54.877Z,13.45
2023-04-24T14:39:23.799Z,13.23
2023-04-24T14:41:51.341Z,13.08
2023-04-24T14:44:19.600Z,13.09
2023-04-24T14:46:47.364Z,12.98
2023-04-24T14:49:18.145Z,13.06
2023-04-24T14:51:45.715Z,13.14
2023-04-24T14:54:13.544Z,13.02
2023-04-24T14:56:44.896Z,13.47
2023-04-24T14:59:12.445Z,13.54
2023-04-24T15:01:40.067Z,13.45
2023-04-24T15:04:08.294Z,13.43
2023-04-24T15:06:35.927Z,13.97
2023-04-24T15:09:04.464Z,13.71
2023-04-24T15:11:35.058Z,13.71
2023-04-24T15:14:12.236Z,13.56
2023-04-24T15:16:40.434Z,13.53
2023-04-24T15:19:08.660Z,13.30
2023-04-24T15:21:37.242Z,13.27
2023-04-24T15:24:05.111Z,13.27
2023-04-24T15:26:32.797Z,12.97
2023-04-24T15:29:00.430Z,12.82
2023-04-24T15:31:29.390Z,12.82
2023-04-24T15:33:56.933Z,12.83
2023-04-24T15:36:24.540Z,12.59
2023-04-24T15:38:52.131Z,12.67
2023-04-24T15:41:19.965Z,12.47
2023-04-24T15:43:47.923Z,12.21
2023-04-24T15:46:15.764Z,12.12
2023-04-24T15:48:45.520Z,12.00
2023-04-24T15:51:13.275Z,12.11
2023-04-24T15:53:40.861Z,12.03
2023-04-24T15:56:08.859Z,11.97
2023-04-24T15:58:36.861Z,12.00
2023-04-24T16:01:04.687Z,12.09
2023-04-24T16:03:32.551Z,12.19
2023-04-24T16:06:01.729Z,12.01
2023-04-24T16:08:29.272Z,11.95
2023-04-24T16:10:56.812Z,11.93
2023-04-24T16:13:24.333Z,11.84
2023-04-24T16:15:52.146Z,12.11
2023-04-24T16:18:19.780Z,12.31
2023-04-24T16:20:47.296Z,12.20
2023-04-24T16:23:16.318Z,12.41
2023-04-24T16:25:43.886Z,11.97
2023-04-24T16:28:12.168Z,11.79
2023-04-24T16:30:40.396Z,11.98
2023-04-24T16:33:09.222Z,12.13
2023-04-24T16:35:40.674Z,12.41
2023-04-24T16:38:08.474Z,12.40
2023-04-24T16:40:37.670Z,12.42
2023-04-24T16:43:05.608Z,12.26
2023-04-24T16:45:33.173Z,12.20
2023-04-24T16:48:04.159Z,12.00
2023-04-24T16:50:31.968Z,12.11
2023-04-24T16:52:59.849Z,12.11
2023-04-24T16:55:27.574Z,11.78
2023-04-24T16:57:56.624Z,12.01
2023-04-24T17:00:24.260Z,11.86
2023-04-24T17:02:52.032Z,11.60
2023-04-24T17:05:21.530Z,11.64
2023-04-24T17:07:49.327Z,11.72
2023-04-24T17:10:17.494Z,10.99
2023-04-24T17:12:48.311Z,10.38
2023-04-24T17:15:20.052Z,10.20
2023-04-24T17:17:48.803Z,9.94
2023-04-24T17:20:22.942Z,9.98
2023-04-24T17:22:51.694Z,10.26
2023-04-24T17:25:21.823Z,10.28
2023-04-24T17:27:49.521Z,9.95
2023-04-24T17:30:18.704Z,10.39
2023-04-24T17:32:46.367Z,10.35
2023-04-24T17:35:16.884Z,10.40
2023-04-24T17:37:44.593Z,10.08
2023-04-24T17:59:19.015Z,9.94
2023-04-24T18:01:46.582Z,9.85
2023-04-24T18:04:14.440Z,9.62
2023-04-24T18:06:42.251Z,9.52
2023-04-24T18:09:10.715Z,9.70
2023-04-24T18:11:38.288Z,10.03
2023-04-24T18:14:05.885Z,9.77
2023-04-24T18:16:35.056Z,9.74
2023-04-24T18:19:02.788Z,9.82
2023-04-24T18:21:31.628Z,9.41
2023-04-24T18:24:00.476Z,9.62
2023-04-24T18:26:28.178Z,9.84
2023-04-24T18:28:56.248Z,9.87
2023-04-24T18:31:24.012Z,9.94
2023-04-24T18:33:54.173Z,9.79
2023-04-24T18:36:21.914Z,9.60
2023-04-24T18:38:49.693Z,9.56
2023-04-24T18:41:17.548Z,9.62
